createdAt,value
2019-04-01T00:19:46.186Z,102784.73
2019-04-01T00:22:15.050Z,102784.31
2019-04-01T00:24:43.946Z,102786.47
2019-04-01T00:27:12.748Z,102788.63
2019-04-01T00:29:41.632Z,102781.66
2019-04-01T00:32:10.513Z,102789.95
2019-04-01T00:34:39.348Z,102784.28
2019-04-01T00:37:08.184Z,102790.36
2019-04-01T00:39:37.024Z,102788.16
2019-04-01T00:42:15.034Z,102786.42
2019-04-01T00:44:44.533Z,102786.86
2019-04-01T00:47:13.546Z,102792.08
2019-04-01T00:49:42.428Z,102786.42
2019-04-01T00:52:11.317Z,102787.73
2019-04-01T00:54:40.264Z,102789.02
2019-04-01T00:57:09.082Z,102782.95
2019-04-01T00:59:37.941Z,102786.38
2019-04-01T01:02:07.286Z,102790.76
2019-04-01T01:04:36.250Z,102794.66
2019-04-01T01:07:05.070Z,102790.28
2019-04-01T01:09:34.166Z,102787.20
2019-04-01T01:12:03.067Z,102782.45
2019-04-01T01:14:31.990Z,102787.23
2019-04-01T01:17:02.677Z,102780.69
2019-04-01T01:19:34.107Z,102788.11
2019-04-01T01:22:05.107Z,102779.41
2019-04-01T01:24:33.967Z,102781.50
2019-04-01T01:27:02.960Z,102778.05
2019-04-01T01:29:31.939Z,102783.27
2019-04-01T01:32:00.834Z,102776.78
2019-04-01T01:34:30.886Z,102771.97
2019-04-01T01:36:59.960Z,102770.97
2019-04-01T01:39:28.830Z,102771.05
2019-04-01T01:41:57.691Z,102774.52
2019-04-01T01:44:26.498Z,102774.48
2019-04-01T01:46:55.333Z,102766.66
2019-04-01T01:49:24.681Z,102770.97
2019-04-01T01:51:53.735Z,102769.70
2019-04-01T01:54:23.134Z,102768.41
2019-04-01T01:56:51.928Z,102773.58
2019-04-01T01:59:20.785Z,102770.97
2019-04-01T02:01:49.895Z,102755.61
2019-04-01T02:04:18.741Z,102767.85
2019-04-01T02:06:47.625Z,102766.55
2019-04-01T02:09:17.003Z,102768.77
2019-04-01T02:11:45.897Z,102764.77
2019-04-01T02:14:14.767Z,102762.05
2019-04-01T02:16:43.607Z,102762.98
2019-04-01T02:19:12.417Z,102767.42
2019-04-01T02:21:41.236Z,102763.94
2019-04-01T02:24:10.059Z,102764.71
2019-04-01T02:26:39.173Z,102764.80
2019-04-01T02:29:08.049Z,102768.28
2019-04-01T02:31:36.859Z,102770.93
2019-04-01T02:34:05.801Z,102766.55
2019-04-01T02:36:34.626Z,102768.72
2019-04-01T02:39:06.122Z,102770.41
2019-04-01T02:41:35.108Z,102775.23
2019-04-01T02:44:03.911Z,102774.36
2019-04-01T02:46:33.017Z,102778.38
2019-04-01T02:49:01.893Z,102774.70
2019-04-01T02:51:30.783Z,102785.56
2019-04-01T02:53:59.628Z,102774.27
2019-04-01T02:56:28.608Z,102776.44
2019-04-01T02:58:57.415Z,102773.72
2019-04-01T03:01:26.357Z,102771.12
2019-04-01T03:03:55.308Z,102774.59
2019-04-01T03:06:25.742Z,102773.25
2019-04-01T03:08:54.610Z,102772.36
2019-04-01T03:11:23.420Z,102769.28
2019-04-01T03:13:52.266Z,102773.55
2019-04-01T03:16:21.060Z,102769.71
2019-04-01T03:18:49.947Z,102769.70
2019-04-01T03:21:18.953Z,102771.83
2019-04-01T03:23:47.766Z,102770.56
2019-04-01T03:26:16.656Z,102772.23
2019-04-01T03:28:45.485Z,102775.28
2019-04-01T03:31:14.611Z,102772.69
2019-04-01T03:33:43.511Z,102777.52
2019-04-01T03:36:12.322Z,102775.72
2019-04-01T03:38:41.286Z,102777.08
2019-04-01T03:41:10.303Z,102782.61
2019-04-01T03:43:39.156Z,102779.14
2019-04-01T03:46:07.946Z,102776.95
2019-04-01T03:48:36.813Z,102778.25
2019-04-01T03:51:05.656Z,102779.05
2019-04-01T03:53:34.914Z,102782.09
2019-04-01T03:56:04.058Z,102778.19
2019-04-01T03:58:32.883Z,102778.56
2019-04-01T04:01:01.806Z,102781.59
2019-04-01T04:03:30.855Z,102779.42
2019-04-01T04:05:59.680Z,102784.64
2019-04-01T04:08:28.585Z,102783.33
2019-04-01T04:10:57.638Z,102789.75
2019-04-01T04:13:26.458Z,102784.20
2019-04-01T04:15:55.459Z,102783.77
2019-04-01T04:18:24.571Z,102789.81
2019-04-01T04:20:53.476Z,102799.63
2019-04-01T04:23:22.319Z,102794.53
2019-04-01T04:25:51.141Z,102796.23
2019-04-01T04:28:20.218Z,102798.79
2019-04-01T04:30:49.937Z,102796.17
2019-04-01T04:33:18.712Z,102804.05
2019-04-01T04:35:47.653Z,102810.98
2019-04-01T04:38:16.843Z,102804.78
2019-04-01T04:40:45.867Z,102813.88
2019-04-01T04:43:14.885Z,102808.69
2019-04-01T04:45:43.769Z,102807.36
2019-04-01T04:48:12.801Z,102805.13
2019-04-01T04:50:41.692Z,102806.44
2019-04-01T04:53:10.536Z,102818.92
2019-04-01T04:55:39.704Z,102812.48
2019-04-01T04:58:08.613Z,102815.08
2019-04-01T05:00:38.060Z,102821.17
2019-04-01T05:03:06.948Z,102817.63
2019-04-01T05:05:36.054Z,102817.23
2019-04-01T05:08:05.022Z,102815.09
2019-04-01T05:10:33.967Z,102815.96
2019-04-01T05:13:02.919Z,102818.19
2019-04-01T05:15:31.970Z,102825.08
2019-04-01T05:18:01.292Z,102831.53
2019-04-01T05:20:32.019Z,102826.37
2019-04-01T05:23:02.930Z,102829.91
2019-04-01T05:25:37.073Z,102828.08
2019-04-01T05:28:06.172Z,102824.20
2019-04-01T05:30:37.282Z,102829.02
2019-04-01T05:33:06.510Z,102828.27
2019-04-01T05:35:36.629Z,102821.32
2019-04-01T05:38:06.801Z,102829.39
2019-04-01T05:40:36.225Z,102824.80
2019-04-01T05:43:05.451Z,102830.95
2019-04-01T05:45:34.501Z,102830.95
2019-04-01T05:48:03.664Z,102831.80
2019-04-01T05:50:32.635Z,102839.69
2019-04-01T05:53:01.658Z,102840.14
2019-04-01T05:55:30.791Z,102834.42
2019-04-01T05:57:59.842Z,102844.02
2019-04-01T06:00:39.643Z,102841.95
2019-04-01T06:03:08.766Z,102842.95
2019-04-01T06:05:37.757Z,102846.78
2019-04-01T06:08:06.670Z,102842.95
2019-04-01T06:10:35.642Z,102840.43
2019-04-01T06:13:04.738Z,102841.73
2019-04-01T06:15:33.729Z,102839.13
2019-04-01T06:18:02.720Z,102843.55
2019-04-01T06:20:31.720Z,102838.33
2019-04-01T06:23:00.677Z,102847.13
2019-04-01T06:25:29.693Z,102852.90
2019-04-01T06:27:58.727Z,102848.22
2019-04-01T06:30:28.090Z,102850.54
2019-04-01T06:32:57.096Z,102854.09
2019-04-01T06:35:26.275Z,102848.14
2019-04-01T06:37:55.679Z,102849.48
2019-04-01T06:40:25.124Z,102848.67
2019-04-01T06:42:54.080Z,102846.52
2019-04-01T06:45:23.082Z,102845.23
2019-04-01T06:47:52.151Z,102850.45
2019-04-01T06:50:21.019Z,102801.24
2019-04-01T06:52:50.384Z,102847.75
2019-04-01T06:55:19.797Z,102851.21
2019-04-01T06:57:48.954Z,102852.83
2019-04-01T07:00:17.963Z,102844.40
2019-04-01T07:02:47.030Z,102841.70
2019-04-01T07:05:16.275Z,102840.46
2019-04-01T07:07:45.373Z,102842.19
2019-04-01T07:10:14.427Z,102821.63
2019-04-01T07:12:43.637Z,102838.77
2019-04-01T07:15:12.651Z,102839.56
2019-04-01T07:17:42.300Z,102840.34
2019-04-01T07:20:12.384Z,102837.46
2019-04-01T07:22:41.593Z,102834.37
2019-04-01T07:25:10.628Z,102840.15
2019-04-01T07:27:39.651Z,102833.18
2019-04-01T07:30:10.550Z,102836.22
2019-04-01T07:32:39.669Z,102838.50
2019-04-01T07:35:08.605Z,102833.84
2019-04-01T07:37:37.673Z,102837.79
2019-04-01T07:40:06.950Z,102841.74
2019-04-01T07:42:36.025Z,102833.31
2019-04-01T07:45:06.165Z,102832.92
2019-04-01T07:47:35.320Z,102841.05
2019-04-01T07:50:04.989Z,102834.11
2019-04-01T07:52:34.223Z,102838.42
2019-04-01T07:55:03.203Z,102832.48
2019-04-01T07:57:32.781Z,102837.46
2019-04-01T08:00:01.779Z,102839.43
2019-04-01T08:02:30.669Z,102836.26
2019-04-01T08:05:00.052Z,102836.05
2019-04-01T08:07:28.998Z,102845.36
2019-04-01T08:09:57.986Z,102834.66
2019-04-01T08:12:28.004Z,102836.19
2019-04-01T08:14:57.614Z,102831.00
2019-04-01T08:17:26.585Z,102833.06
2019-04-01T08:19:55.463Z,102829.81
2019-04-01T08:22:24.686Z,102840.92
2019-04-01T08:24:54.228Z,102833.15
2019-04-01T08:27:23.816Z,102833.13
2019-04-01T08:29:52.785Z,102831.30
2019-04-01T08:32:21.906Z,102828.51
2019-04-01T08:34:51.154Z,102821.88
2019-04-01T08:37:20.160Z,102827.60
2019-04-01T08:39:49.176Z,102826.08
2019-04-01T08:42:18.133Z,102811.92
2019-04-01T08:44:47.239Z,102813.13
2019-04-01T08:47:32.662Z,102818.17
2019-04-01T08:50:01.769Z,102810.23
2019-04-01T08:52:31.027Z,102800.47
2019-04-01T08:55:00.477Z,102814.09
2019-04-01T08:57:29.648Z,102805.33
2019-04-01T09:06:56.144Z,102799.17
2019-04-01T09:09:26.306Z,102798.65
2019-04-01T09:11:56.463Z,102790.79
2019-04-01T09:14:27.680Z,102789.83
2019-04-01T09:16:57.505Z,102785.61
2019-04-01T09:19:26.445Z,102783.74
2019-04-01T09:21:57.110Z,102781.83
2019-04-01T09:24:26.468Z,102781.52
2019-04-01T09:26:55.947Z,102779.01
2019-04-01T09:29:24.983Z,102779.19
2019-04-01T09:31:54.213Z,102775.98
2019-04-01T09:34:23.148Z,102778.94
2019-04-01T09:36:52.195Z,102773.34
2019-04-01T09:39:21.009Z,102767.60
2019-04-01T09:41:49.958Z,102765.22
2019-04-01T09:44:18.867Z,102762.09
2019-04-01T09:46:49.197Z,102766.05
2019-04-01T09:49:18.065Z,102759.31
2019-04-01T09:51:48.761Z,102762.14
2019-04-01T09:54:17.654Z,102757.33
2019-04-01T09:56:46.668Z,102749.98
2019-04-01T09:59:15.644Z,102752.80
2019-04-01T10:01:44.677Z,102745.74
2019-04-01T10:04:14.565Z,102744.50
2019-04-01T10:06:43.647Z,102741.63
2019-04-01T10:09:12.649Z,102737.72
2019-04-01T10:11:41.836Z,102737.95
2019-04-01T10:14:10.735Z,102735.86
2019-04-01T10:16:39.635Z,102729.91
2019-04-01T10:19:08.553Z,102727.58
2019-04-01T10:21:37.496Z,102720.89
2019-04-01T10:24:06.383Z,102715.78
2019-04-01T10:26:35.341Z,102723.76
2019-04-01T10:29:04.245Z,102712.91
2019-04-01T10:31:33.348Z,102714.78
2019-04-01T10:34:02.282Z,102711.84
2019-04-01T10:36:31.176Z,102709.17
2019-04-01T10:39:00.006Z,102713.65
2019-04-01T10:41:28.834Z,102706.12
2019-04-01T10:43:57.719Z,102706.28
2019-04-01T10:46:27.050Z,102702.61
2019-04-01T10:48:55.962Z,102693.55
2019-04-01T10:51:24.956Z,102692.20
2019-04-01T10:53:53.987Z,102689.22
2019-04-01T10:56:22.920Z,102690.43
2019-04-01T10:58:51.750Z,102682.23
2019-04-01T11:01:20.705Z,102691.81
2019-04-01T11:03:50.129Z,102684.03
2019-04-01T11:06:19.101Z,102668.52
2019-04-01T11:08:48.090Z,102673.63
2019-04-01T11:11:17.308Z,102677.25
2019-04-01T11:13:46.096Z,102675.01
2019-04-01T11:16:15.143Z,102667.17
2019-04-01T11:18:44.266Z,102666.22
2019-04-01T11:21:13.275Z,102662.34
2019-04-01T11:23:42.478Z,102665.00
2019-04-01T11:26:11.396Z,102664.33
2019-04-01T11:28:40.289Z,102666.58
2019-04-01T11:31:09.121Z,102657.45
2019-04-01T11:33:38.039Z,102654.10
2019-04-01T11:36:06.948Z,102642.92
2019-04-01T11:38:35.942Z,102637.30
2019-04-01T11:41:05.105Z,102641.53
2019-04-01T11:43:35.707Z,102632.17
2019-04-01T11:46:05.067Z,102633.09
2019-04-01T11:48:33.936Z,102633.91
2019-04-01T11:51:02.973Z,102604.92
2019-04-01T11:53:31.798Z,102621.77
2019-04-01T11:56:00.700Z,102609.09
2019-04-01T11:58:29.591Z,102616.05
2019-04-01T12:00:58.504Z,102605.82
2019-04-01T12:03:27.504Z,102595.30
2019-04-01T12:05:56.530Z,102598.74
2019-04-01T12:08:26.032Z,102596.18
2019-04-01T12:10:55.414Z,102578.48
2019-04-01T12:13:24.448Z,102572.91
2019-04-01T12:15:53.911Z,102575.17
2019-04-01T12:18:22.896Z,102563.65
2019-04-01T12:20:51.830Z,102558.61
2019-04-01T12:23:22.813Z,102560.72
2019-04-01T12:25:51.817Z,102559.33
2019-04-01T12:28:21.578Z,102558.97
2019-04-01T12:30:51.946Z,102547.14
2019-04-01T12:33:21.058Z,102543.78
2019-04-01T12:35:50.093Z,102543.38
2019-04-01T12:38:19.188Z,102536.61
2019-04-01T12:40:48.361Z,102538.31
2019-04-01T12:43:17.305Z,102529.11
2019-04-01T12:45:48.890Z,102528.10
2019-04-01T12:48:25.309Z,102524.67
2019-04-01T12:50:58.272Z,102515.82
2019-04-01T12:53:41.683Z,102514.23
2019-04-01T12:56:12.264Z,102509.25
2019-04-01T12:58:41.301Z,102504.66
2019-04-01T13:01:10.921Z,102490.47
2019-04-01T13:03:39.778Z,102484.58
2019-04-01T13:06:14.861Z,102476.91
2019-04-01T13:08:43.658Z,102478.36
2019-04-01T13:11:15.196Z,102473.20
2019-04-01T13:13:44.791Z,102464.42
2019-04-01T13:16:13.907Z,102457.74
2019-04-01T13:18:56.872Z,102460.72
2019-04-01T13:21:25.784Z,102456.36
2019-04-01T13:23:55.323Z,102446.48
2019-04-01T13:26:24.679Z,102437.99
2019-04-01T13:28:56.491Z,102426.64
2019-04-01T13:31:25.753Z,102421.44
2019-04-01T13:33:55.040Z,102425.98
2019-04-01T13:36:24.224Z,102414.33
2019-04-01T13:38:53.184Z,102417.36
2019-04-01T13:41:25.067Z,102415.38
2019-04-01T13:43:52.691Z,102404.09
2019-04-01T13:46:21.724Z,102392.99
2019-04-01T13:56:01.073Z,102380.59
2019-04-01T13:58:29.906Z,102371.48
2019-04-01T14:00:58.864Z,102366.47
2019-04-01T14:03:28.371Z,102368.20
2019-04-01T14:05:57.968Z,102364.72
2019-04-01T14:08:26.911Z,102360.72
2019-04-01T14:10:55.835Z,102362.27
2019-04-01T14:13:24.711Z,102346.49
2019-04-01T14:18:32.019Z,102345.89
2019-04-01T14:21:14.956Z,102339.43
2019-04-01T14:23:31.639Z,102334.29
2019-04-01T14:26:00.719Z,102330.34
2019-04-01T14:28:29.568Z,102327.38
2019-04-01T14:30:58.551Z,102323.50
2019-04-01T14:33:27.443Z,102319.01
2019-04-01T14:35:56.399Z,102312.49
2019-04-01T14:38:25.671Z,102297.66
2019-04-01T14:40:57.970Z,102297.66
2019-04-01T14:43:25.216Z,102300.00
2019-04-01T14:45:54.078Z,102285.58
2019-04-01T14:48:26.052Z,102285.58
2019-04-01T14:50:55.134Z,102292.94
2019-04-01T14:53:24.561Z,102280.19
2019-04-01T14:55:53.595Z,102270.75
2019-04-01T14:58:23.182Z,102260.16
2019-04-01T15:00:52.993Z,102263.52
2019-04-01T15:03:21.807Z,102255.06
2019-04-01T15:05:50.799Z,102250.05
2019-04-01T15:08:20.501Z,102252.50
2019-04-01T15:10:49.571Z,102240.66
2019-04-01T15:13:18.596Z,102238.27
2019-04-01T15:15:48.376Z,102235.29
2019-04-01T15:18:17.234Z,102231.45
2019-04-01T15:20:47.259Z,102224.48
2019-04-01T15:23:16.194Z,102225.22
2019-04-01T15:25:45.095Z,102220.63
2019-04-01T15:28:13.968Z,102220.67
2019-04-01T15:30:45.081Z,102220.02
2019-04-01T15:33:14.059Z,102208.23
2019-04-01T15:35:42.998Z,102198.81
2019-04-01T15:38:14.014Z,102198.73
2019-04-01T15:40:44.509Z,102197.19
2019-04-01T15:43:13.788Z,102191.58
2019-04-01T15:45:42.729Z,102182.55
2019-04-01T15:48:12.083Z,102172.87
2019-04-01T15:50:48.872Z,102177.45
2019-04-01T15:53:18.815Z,102177.16
2019-04-01T15:55:47.834Z,102164.19
2019-04-01T15:58:16.994Z,102161.30
2019-04-01T16:00:45.872Z,102164.30
2019-04-01T16:03:14.913Z,102149.34
2019-04-01T16:05:43.800Z,102149.22
2019-04-01T16:08:12.774Z,102133.88
2019-04-01T16:10:42.090Z,102136.86
2019-04-01T16:13:11.364Z,102132.88
2019-04-01T16:15:40.234Z,102131.87
2019-04-01T16:18:09.383Z,102121.78
2019-04-01T16:20:38.449Z,102117.18
2019-04-01T16:23:07.443Z,102111.59
2019-04-01T16:25:37.759Z,102102.09
2019-04-01T16:28:07.004Z,102099.38
2019-04-01T16:37:33.811Z,102090.47
2019-04-01T16:40:05.884Z,102085.91
2019-04-01T16:42:33.925Z,102102.91
2019-04-01T16:45:02.858Z,102118.58
2019-04-01T16:47:31.864Z,102120.64
2019-04-01T16:50:00.825Z,102123.86
2019-04-01T16:52:30.290Z,102114.92
2019-04-01T16:55:02.465Z,102115.80
2019-04-01T16:57:31.446Z,102115.47
2019-04-01T17:00:00.422Z,102121.30
2019-04-01T17:02:32.739Z,102118.02
2019-04-01T17:05:00.482Z,102116.99
2019-04-01T17:07:29.343Z,102116.78
2019-04-01T17:09:58.453Z,102119.28
2019-04-01T17:12:28.996Z,102119.28
2019-04-01T17:14:58.084Z,102114.92
2019-04-01T17:17:27.700Z,102114.21
2019-04-01T17:19:56.640Z,102112.13
2019-04-01T17:22:25.621Z,102106.36
2019-04-01T17:24:55.108Z,102108.86
2019-04-01T17:27:24.127Z,102106.68
2019-04-01T17:29:53.010Z,102106.91
2019-04-01T17:32:22.044Z,102094.31
2019-04-01T17:34:50.868Z,102103.27
2019-04-01T17:37:19.899Z,102098.83
2019-04-01T17:39:49.078Z,102103.02
2019-04-01T17:42:18.120Z,102103.41
2019-04-01T17:44:47.094Z,102095.62
2019-04-01T17:47:16.198Z,102095.94
2019-04-01T17:49:47.548Z,102099.79
2019-04-01T17:52:16.353Z,102095.42
2019-04-01T17:54:45.255Z,102093.69
2019-04-01T17:57:15.968Z,102088.69
2019-04-01T17:59:45.250Z,102091.98
2019-04-01T18:02:18.848Z,102088.80
2019-04-01T18:04:47.792Z,102089.59
2019-04-01T18:07:17.650Z,102095.34
2019-04-01T18:09:46.501Z,102097.59
2019-04-01T18:12:15.477Z,102094.73
2019-04-01T18:14:44.414Z,102089.66
2019-04-01T18:17:13.363Z,102098.77
2019-04-01T18:19:42.422Z,102100.64
2019-04-01T18:22:11.845Z,102094.91
2019-04-01T18:24:40.767Z,102098.63
2019-04-01T18:27:09.732Z,102100.00
2019-04-01T18:29:38.602Z,102099.94
2019-04-01T18:32:07.518Z,102108.16
2019-04-01T18:34:36.421Z,102105.42
2019-04-01T18:37:10.681Z,102110.70
2019-04-01T18:39:48.367Z,102106.51
2019-04-01T18:42:15.543Z,102109.38
2019-04-01T18:44:44.593Z,102109.61
2019-04-01T18:47:13.575Z,102098.63
2019-04-01T18:49:42.556Z,102111.87
2019-04-01T18:52:11.880Z,102101.80
2019-04-01T18:54:40.842Z,102108.79
2019-04-01T18:57:09.781Z,102104.96
2019-04-01T18:59:38.655Z,102101.75
2019-04-01T19:02:08.742Z,102095.38
2019-04-01T19:04:41.406Z,102099.33
2019-04-01T19:07:10.523Z,102109.23
2019-04-01T19:09:39.401Z,102100.02
2019-04-01T19:12:08.472Z,102099.03
2019-04-01T19:14:37.401Z,102098.23
2019-04-01T19:17:06.227Z,102095.66
2019-04-01T19:19:40.109Z,102097.64
2019-04-01T19:22:08.303Z,102101.00
2019-04-01T19:24:37.346Z,102092.70
2019-04-01T19:27:06.352Z,102099.47
2019-04-01T19:29:36.257Z,102099.27
2019-04-01T19:32:06.090Z,102100.27
2019-04-01T19:34:36.195Z,102097.24
2019-04-01T19:37:05.483Z,102103.18
2019-04-01T19:39:34.324Z,102096.44
2019-04-01T19:42:03.242Z,102100.44
2019-04-01T19:44:32.051Z,102089.53
2019-04-01T19:47:00.834Z,102087.16
2019-04-01T19:49:29.705Z,102087.45
2019-04-01T19:51:58.711Z,102084.52
2019-04-01T19:54:31.649Z,102082.61
2019-04-01T19:56:59.055Z,102078.59
2019-04-01T19:59:27.970Z,102078.19
2019-04-01T20:01:58.337Z,102083.12
2019-04-01T20:04:27.413Z,102070.52
2019-04-01T20:06:56.237Z,102076.30
2019-04-01T20:09:25.267Z,102068.49
2019-04-01T20:11:54.150Z,102070.59
2019-04-01T20:14:23.174Z,102070.26
2019-04-01T20:16:52.046Z,102072.66
2019-04-01T20:19:21.159Z,102066.72
2019-04-01T20:21:50.438Z,102064.41
2019-04-01T20:24:19.684Z,102057.35
2019-04-01T20:26:48.940Z,102054.11
2019-04-01T20:29:18.054Z,102054.05
2019-04-01T20:31:46.983Z,102047.15
2019-04-01T20:34:19.781Z,102043.05
2019-04-01T20:36:46.553Z,102041.83
2019-04-01T20:39:15.396Z,102044.47
2019-04-01T20:41:45.444Z,102031.95
2019-04-01T20:44:14.278Z,102027.42
2019-04-01T20:46:43.117Z,102020.17
2019-04-01T20:49:12.160Z,102023.45
2019-04-01T20:51:41.880Z,102024.70
2019-04-01T20:54:11.235Z,102020.30
2019-04-01T20:56:40.268Z,102013.49
2019-04-01T20:59:10.413Z,102014.75
2019-04-01T21:01:39.610Z,102006.48
2019-04-01T21:04:08.494Z,102002.46
2019-04-01T21:06:37.639Z,101998.52
2019-04-01T21:09:08.740Z,102005.15
2019-04-01T21:11:37.599Z,101998.52
2019-04-01T21:14:07.728Z,101995.56
2019-04-01T21:16:36.656Z,101987.16
2019-04-01T21:19:05.670Z,101974.70
2019-04-01T21:21:34.465Z,101983.40
2019-04-01T21:24:05.377Z,101989.63
2019-04-01T21:26:37.183Z,101986.64
2019-04-01T21:29:06.939Z,101988.36
2019-04-01T21:31:36.959Z,101980.47
2019-04-01T21:34:07.767Z,101978.53
2019-04-01T21:36:37.178Z,101979.44
2019-04-01T21:39:07.466Z,101978.13
2019-04-01T21:41:36.415Z,101969.11
2019-04-01T21:44:05.311Z,101973.13
2019-04-01T21:46:34.234Z,101969.92
2019-04-01T21:49:03.050Z,101959.05
2019-04-01T21:51:33.069Z,101957.56
2019-04-01T21:54:02.514Z,101952.31
2019-04-01T21:56:31.467Z,101955.06
2019-04-01T21:59:00.366Z,101955.41
2019-04-01T22:01:29.740Z,101946.42
2019-04-01T22:03:58.541Z,101946.95
2019-04-01T22:06:27.400Z,101947.23
2019-04-01T22:08:56.383Z,101944.02
2019-04-01T22:11:25.362Z,101939.70
2019-04-01T22:13:55.146Z,101927.82
2019-04-01T22:16:25.260Z,101925.94
2019-04-01T22:18:54.218Z,101927.53
2019-04-01T22:21:23.023Z,101918.28
2019-04-01T22:23:51.986Z,101914.55
2019-04-01T22:26:20.885Z,101909.83
2019-04-01T22:28:51.011Z,101902.92
2019-04-01T22:31:19.958Z,101896.38
2019-04-01T22:33:48.779Z,101889.41
2019-04-01T22:36:17.578Z,101893.56
2019-04-01T22:38:46.513Z,101885.52
2019-04-01T22:41:15.306Z,101887.87
2019-04-01T22:43:44.379Z,101886.15
2019-04-01T22:46:13.427Z,101882.89
2019-04-01T22:48:43.189Z,101884.72
2019-04-01T22:51:12.293Z,101873.64
2019-04-01T22:53:41.112Z,101875.07
2019-04-01T22:56:10.460Z,101873.98
2019-04-01T22:58:39.383Z,101871.03
2019-04-01T23:01:08.250Z,101865.02
2019-04-01T23:03:37.071Z,101868.16
2019-04-01T23:06:06.307Z,101866.97
2019-04-01T23:08:35.599Z,101857.09
2019-04-01T23:11:04.492Z,101850.81
2019-04-01T23:13:33.433Z,101852.02
2019-04-01T23:16:02.721Z,101855.95
2019-04-01T23:18:31.591Z,101858.46
2019-04-01T23:21:01.238Z,101852.02
2019-04-01T23:23:31.165Z,101849.39
2019-04-01T23:25:59.987Z,101848.48
2019-04-01T23:28:28.940Z,101851.56
2019-04-01T23:30:57.870Z,101843.84
2019-04-01T23:33:26.702Z,101844.35
2019-04-01T23:35:55.560Z,101841.90
2019-04-01T23:38:24.601Z,101841.80
2019-04-01T23:40:53.533Z,101844.70
2019-04-01T23:43:22.417Z,101832.31
2019-04-01T23:45:51.448Z,101834.73
2019-04-01T23:48:20.243Z,101826.15
2019-04-01T23:50:49.144Z,101819.59
2019-04-01T23:53:18.014Z,101819.76
2019-04-01T23:55:46.882Z,101811.20
2019-04-01T23:58:16.165Z,101814.52
